createdAt,value
2018-11-28T00:02:29.059Z,67.43
2018-11-28T00:04:59.477Z,74.63
2018-11-28T00:07:29.458Z,68.03
2018-11-28T00:10:03.999Z,64.83
2018-11-28T00:12:33.918Z,68.83
2018-11-28T00:15:03.750Z,65.13
2018-11-28T00:17:34.420Z,68.60
2018-11-28T00:20:09.938Z,70.53
2018-11-28T00:22:39.999Z,71.30
2018-11-28T00:25:10.957Z,68.00
2018-11-28T00:27:45.441Z,68.40
2018-11-28T00:30:20.805Z,64.37
2018-11-28T00:32:50.618Z,66.07
2018-11-28T00:35:22.918Z,71.07
2018-11-28T00:37:54.221Z,64.33
2018-11-28T00:40:25.085Z,71.30
2018-11-28T00:42:55.683Z,61.50
2018-11-28T00:45:26.661Z,68.93
2018-11-28T00:47:57.063Z,70.23
2018-11-28T00:50:28.901Z,69.87
2018-11-28T00:52:59.262Z,72.30
2018-11-28T00:55:29.582Z,64.77
2018-11-28T00:57:59.742Z,62.53
2018-11-28T01:00:32.561Z,70.33
2018-11-28T01:03:03.041Z,64.73
2018-11-28T01:05:33.180Z,69.90
2018-11-28T01:08:03.641Z,68.43
2018-11-28T01:10:34.501Z,66.10
2018-11-28T01:13:05.063Z,57.67
2018-11-28T01:15:35.342Z,68.37
2018-11-28T01:18:06.307Z,63.13
2018-11-28T01:20:36.802Z,69.47
2018-11-28T01:23:06.963Z,67.23
2018-11-28T01:25:37.602Z,67.73
2018-11-28T01:28:08.003Z,61.37
2018-11-28T01:30:38.661Z,57.67
2018-11-28T01:33:09.304Z,63.17
2018-11-28T01:35:39.621Z,67.60
2018-11-28T01:38:10.300Z,61.43
2018-11-28T01:40:40.881Z,60.00
2018-11-28T01:43:11.080Z,59.67
2018-11-28T01:45:42.140Z,59.07
2018-11-28T01:48:12.098Z,65.13
2018-11-28T01:50:42.258Z,69.57
2018-11-28T01:53:12.437Z,67.23
2018-11-28T01:55:43.978Z,62.00
2018-11-28T01:58:14.138Z,63.13
2018-11-28T02:00:44.862Z,61.83
2018-11-28T02:03:15.758Z,56.67
2018-11-28T02:05:45.917Z,54.97
2018-11-28T02:08:16.197Z,59.60
2018-11-28T02:10:47.097Z,59.10
2018-11-28T02:13:17.118Z,57.10
2018-11-28T02:15:47.517Z,57.57
2018-11-28T02:18:17.477Z,57.80
2018-11-28T02:20:47.677Z,50.77
2018-11-28T02:23:17.758Z,49.07
2018-11-28T02:25:48.380Z,54.00
2018-11-28T02:28:18.557Z,54.17
2018-11-28T02:30:49.139Z,54.53
2018-11-28T02:33:19.641Z,54.83
2018-11-28T02:35:50.498Z,50.77
2018-11-28T02:38:20.698Z,54.20
2018-11-28T02:40:51.200Z,46.40
2018-11-28T02:43:21.558Z,48.73
2018-11-28T02:46:09.118Z,41.03
2018-11-28T02:48:39.658Z,47.60
2018-11-28T02:51:10.398Z,44.97
2018-11-28T02:53:40.479Z,45.23
2018-11-28T02:56:10.619Z,46.00
2018-11-28T02:58:40.960Z,43.20
2018-11-28T03:01:11.043Z,41.13
2018-11-28T03:03:42.424Z,44.80
2018-11-28T03:06:12.784Z,43.93
2018-11-28T03:08:42.746Z,42.77
2018-11-28T03:11:13.284Z,44.27
2018-11-28T03:13:47.584Z,46.07
2018-11-28T03:16:20.483Z,39.83
2018-11-28T03:18:51.205Z,40.67
2018-11-28T03:21:21.645Z,42.53
2018-11-28T03:23:52.003Z,43.70
2018-11-28T03:26:22.402Z,43.03
2018-11-28T03:28:52.623Z,45.43
2018-11-28T03:31:22.881Z,42.30
2018-11-28T03:33:53.200Z,46.63
2018-11-28T03:36:23.359Z,37.60
2018-11-28T03:38:55.391Z,43.33
2018-11-28T03:41:25.381Z,44.43
2018-11-28T03:43:55.361Z,43.90
2018-11-28T03:46:25.303Z,43.30
2018-11-28T03:48:55.700Z,38.67
2018-11-28T03:51:26.082Z,35.57
2018-11-28T03:53:56.162Z,36.87
2018-11-28T03:56:26.222Z,36.53
2018-11-28T03:58:56.966Z,35.93
2018-11-28T04:01:28.262Z,35.20
2018-11-28T04:03:58.322Z,35.93
2018-11-28T04:06:29.422Z,32.63
2018-11-28T04:08:59.524Z,38.10
2018-11-28T04:11:30.642Z,32.17
2018-11-28T04:14:01.001Z,39.40
2018-11-28T04:16:31.443Z,35.77
2018-11-28T04:19:05.261Z,32.20
2018-11-28T04:21:35.370Z,31.67
2018-11-28T04:24:05.801Z,32.40
2018-11-28T04:26:35.921Z,35.60
2018-11-28T04:29:06.761Z,34.43
2018-11-28T04:31:36.963Z,32.83
2018-11-28T04:34:08.105Z,37.20
2018-11-28T04:36:38.403Z,31.63
2018-11-28T04:39:09.698Z,36.83
2018-11-28T04:41:40.799Z,37.60
2018-11-28T04:44:10.860Z,41.80
2018-11-28T04:46:43.800Z,40.53
2018-11-28T04:49:14.080Z,45.33
2018-11-28T04:51:44.338Z,46.63
2018-11-28T04:54:14.959Z,40.70
2018-11-28T04:56:45.699Z,42.10
2018-11-28T04:59:15.718Z,46.57
2018-11-28T05:01:45.923Z,44.67
2018-11-28T05:04:16.421Z,44.00
2018-11-28T05:07:50.081Z,50.10
2018-11-28T05:10:27.519Z,49.13
2018-11-28T05:12:58.561Z,49.73
2018-11-28T05:15:30.920Z,49.97
2018-11-28T05:18:01.583Z,51.10
2018-11-28T05:20:34.202Z,59.47
2018-11-28T05:23:06.180Z,54.70
2018-11-28T05:25:36.966Z,57.23
2018-11-28T05:28:07.724Z,51.70
2018-11-28T05:30:38.078Z,56.17
2018-11-28T05:33:09.120Z,60.53
2018-11-28T05:35:41.119Z,59.03
2018-11-28T05:38:15.039Z,61.00
2018-11-28T05:40:46.338Z,61.03
2018-11-28T05:43:16.698Z,64.10
2018-11-28T05:45:46.880Z,55.77
2018-11-28T05:48:17.560Z,59.07
2018-11-28T05:50:48.001Z,61.53
2018-11-28T05:53:18.739Z,62.33
2018-11-28T05:55:48.801Z,57.93
2018-11-28T05:58:19.199Z,56.47
2018-11-28T06:00:49.903Z,69.97
2018-11-28T06:03:20.623Z,66.77
2018-11-28T06:05:50.921Z,75.20
2018-11-28T06:08:20.981Z,69.03
2018-11-28T06:10:55.248Z,68.83
2018-11-28T06:13:25.441Z,64.90
2018-11-28T06:15:55.529Z,65.93
2018-11-28T06:18:26.118Z,62.40
2018-11-28T06:20:56.618Z,67.37
2018-11-28T06:23:26.798Z,66.13
2018-11-28T06:25:56.802Z,66.33
2018-11-28T06:28:26.294Z,69.47
2018-11-28T06:31:00.607Z,64.60
2018-11-28T06:33:29.999Z,62.67
2018-11-28T06:36:00.006Z,68.17
2018-11-28T06:38:29.512Z,68.27
2018-11-28T06:40:58.951Z,66.67
2018-11-28T06:43:29.531Z,70.07
2018-11-28T06:46:07.130Z,77.67
2018-11-28T06:48:37.227Z,69.70
2018-11-28T06:51:08.147Z,68.23
2018-11-28T06:53:40.280Z,73.47
2018-11-28T06:56:10.478Z,75.50
2018-11-28T06:58:41.278Z,71.60
2018-11-28T07:01:12.007Z,75.30
2018-11-28T07:03:42.167Z,70.93
2018-11-28T07:06:12.025Z,73.00
2018-11-28T07:08:42.245Z,77.40
2018-11-28T07:11:12.326Z,71.97
2018-11-28T07:13:42.406Z,74.43
2018-11-28T07:16:12.488Z,74.83
2018-11-28T07:18:59.907Z,76.87
2018-11-28T07:21:31.127Z,82.67
2018-11-28T07:24:01.506Z,74.20
2018-11-28T07:26:32.005Z,76.67
2018-11-28T07:29:02.066Z,76.30
2018-11-28T07:31:32.166Z,77.03
2018-11-28T07:34:02.560Z,68.53
2018-11-28T07:36:32.324Z,68.67
2018-11-28T07:39:02.086Z,65.43
2018-11-28T07:41:32.483Z,65.67
2018-11-28T07:44:02.923Z,61.27
2018-11-28T07:46:32.882Z,62.17
2018-11-28T07:49:03.022Z,59.30
2018-11-28T07:51:33.102Z,55.80
2018-11-28T07:54:03.204Z,58.00
2018-11-28T07:56:33.703Z,53.77
2018-11-28T07:59:04.323Z,50.07
2018-11-28T08:01:34.400Z,47.70
2018-11-28T08:06:39.020Z,52.70
2018-11-28T08:09:09.939Z,45.43
2018-11-28T08:11:40.141Z,50.33
2018-11-28T08:14:10.219Z,47.53
2018-11-28T08:16:40.318Z,49.37
2018-11-28T08:19:10.938Z,45.93
2018-11-28T08:21:42.400Z,41.77
2018-11-28T08:24:12.719Z,40.00
2018-11-28T08:26:42.939Z,44.63
2018-11-28T08:29:13.221Z,44.03
2018-11-28T08:31:43.839Z,41.37
2018-11-28T08:34:13.978Z,39.13
2018-11-28T08:36:44.141Z,42.10
2018-11-28T08:39:14.420Z,41.73
2018-11-28T08:41:44.641Z,43.30
2018-11-28T08:44:14.719Z,37.87
2018-11-28T08:46:44.741Z,41.03
2018-11-28T08:49:14.800Z,37.90
2018-11-28T08:51:44.941Z,37.90
2018-11-28T08:54:15.340Z,43.20
2018-11-28T08:56:45.759Z,40.77
2018-11-28T08:59:16.080Z,39.93
2018-11-28T09:01:46.480Z,42.40
2018-11-28T09:04:21.103Z,41.67
2018-11-28T09:06:51.264Z,38.50
2018-11-28T09:09:21.933Z,41.03
2018-11-28T09:11:52.324Z,36.70
2018-11-28T09:14:22.783Z,36.67
2018-11-28T09:16:53.363Z,31.97
2018-11-28T09:19:23.844Z,34.17
2018-11-28T09:21:53.964Z,35.27
2018-11-28T09:24:24.100Z,39.10
2018-11-28T09:26:54.320Z,36.33
2018-11-28T09:29:24.742Z,38.00
2018-11-28T09:31:55.339Z,35.47
2018-11-28T09:34:25.610Z,37.27
2018-11-28T09:36:56.059Z,33.57
2018-11-28T09:39:27.019Z,36.37
2018-11-28T09:41:57.441Z,34.57
2018-11-28T09:44:27.580Z,34.80
2018-11-28T09:46:58.339Z,31.23
2018-11-28T09:49:28.960Z,31.13
2018-11-28T09:51:59.379Z,36.13
2018-11-28T09:54:30.479Z,29.00
2018-11-28T09:57:01.099Z,30.63
2018-11-28T09:59:31.579Z,31.63
2018-11-28T10:02:01.820Z,32.07
2018-11-28T10:04:31.999Z,30.13
2018-11-28T10:07:02.399Z,28.50
2018-11-28T10:09:32.799Z,31.50
2018-11-28T10:12:03.182Z,32.83
2018-11-28T10:14:34.201Z,29.23
2018-11-28T10:17:04.760Z,29.60
2018-11-28T10:19:35.339Z,34.00
2018-11-28T10:22:05.420Z,29.10
2018-11-28T10:24:35.781Z,32.60
2018-11-28T10:27:06.580Z,28.83
2018-11-28T10:29:36.721Z,29.60
2018-11-28T10:32:07.360Z,30.57
2018-11-28T10:34:37.541Z,34.27
2018-11-28T10:37:07.700Z,31.13
2018-11-28T10:39:37.920Z,29.43
2018-11-28T10:42:08.621Z,31.70
2018-11-28T10:47:29.921Z,28.60
2018-11-28T10:50:00.020Z,29.53
2018-11-28T10:52:30.104Z,29.00
2018-11-28T10:55:00.461Z,31.17
2018-11-28T10:57:30.561Z,29.40
2018-11-28T11:00:00.407Z,32.97
2018-11-28T11:02:37.903Z,31.60
2018-11-28T11:05:14.603Z,31.87
2018-11-28T11:07:50.205Z,31.60
2018-11-28T11:10:31.951Z,30.20
2018-11-28T11:13:06.923Z,30.53
2018-11-28T11:15:36.964Z,32.23
2018-11-28T11:18:10.786Z,29.57
2018-11-28T11:20:39.349Z,29.73
2018-11-28T11:23:09.855Z,29.93
2018-11-28T11:25:40.167Z,30.37
2018-11-28T11:28:10.307Z,29.00
2018-11-28T11:30:40.327Z,28.93
2018-11-28T11:33:10.094Z,27.63
2018-11-28T11:35:40.547Z,29.70
2018-11-28T11:38:10.822Z,26.30
2018-11-28T11:40:41.387Z,28.03
2018-11-28T11:43:12.210Z,26.40
2018-11-28T11:45:46.887Z,28.50
2018-11-28T11:48:18.681Z,26.73
2018-11-28T11:50:49.561Z,28.00
2018-11-28T11:53:19.881Z,27.13
2018-11-28T11:55:54.620Z,25.87
2018-11-28T11:58:24.600Z,23.33
2018-11-28T12:00:55.048Z,24.27
2018-11-28T12:03:25.450Z,26.33
2018-11-28T12:05:57.189Z,26.17
2018-11-28T12:08:28.874Z,26.73
2018-11-28T12:10:59.449Z,24.70
2018-11-28T12:13:29.809Z,26.57
2018-11-28T12:16:00.016Z,24.57
2018-11-28T12:18:30.669Z,26.30
2018-11-28T12:21:03.047Z,26.50
2018-11-28T12:23:33.865Z,25.00
2018-11-28T12:26:04.162Z,24.63
2018-11-28T12:28:34.103Z,25.67
2018-11-28T12:31:04.283Z,26.60
2018-11-28T12:33:34.401Z,25.67
2018-11-28T12:36:04.802Z,25.97
2018-11-28T12:38:35.200Z,26.77
2018-11-28T12:41:05.602Z,24.70
2018-11-28T12:43:36.062Z,24.10
2018-11-28T12:46:06.640Z,24.50
2018-11-28T12:48:36.862Z,24.87
2018-11-28T12:51:07.261Z,23.47
2018-11-28T12:53:37.580Z,22.50
2018-11-28T12:56:08.541Z,23.20
2018-11-28T12:58:38.402Z,24.70
2018-11-28T13:01:12.918Z,24.83
2018-11-28T13:03:43.109Z,23.67
2018-11-28T13:06:13.428Z,23.47
2018-11-28T13:08:43.815Z,23.43
2018-11-28T13:11:14.448Z,22.97
2018-11-28T13:13:45.248Z,18.23
2018-11-28T13:16:15.388Z,21.53
2018-11-28T13:18:45.648Z,21.97
2018-11-28T13:21:15.591Z,22.17
2018-11-28T13:23:45.800Z,21.27
2018-11-28T13:26:16.319Z,19.77
2018-11-28T13:28:46.420Z,23.70
2018-11-28T13:31:16.721Z,21.43
2018-11-28T13:33:51.739Z,20.50
2018-11-28T13:36:25.980Z,22.27
2018-11-28T13:38:56.324Z,19.43
2018-11-28T13:41:26.401Z,24.60
2018-11-28T13:43:56.779Z,21.67
2018-11-28T13:46:26.562Z,19.53
2018-11-28T13:49:04.379Z,16.47
2018-11-28T13:51:34.780Z,19.33
2018-11-28T13:54:20.778Z,21.33
2018-11-28T13:59:05.605Z,17.83
2018-11-28T14:01:36.562Z,19.23
2018-11-28T14:04:07.043Z,19.03
2018-11-28T14:06:37.179Z,20.37
2018-11-28T14:09:08.940Z,21.23
2018-11-28T14:11:39.121Z,22.43
2018-11-28T14:14:09.581Z,21.30
2018-11-28T14:16:39.899Z,21.67
2018-11-28T14:19:11.584Z,20.87
2018-11-28T14:21:42.082Z,21.17
2018-11-28T14:24:12.759Z,22.50
2018-11-28T14:26:42.962Z,20.07
2018-11-28T14:29:13.282Z,20.70
2018-11-28T14:31:47.585Z,24.07
2018-11-28T14:34:17.706Z,19.97
2018-11-28T14:36:48.646Z,21.70
2018-11-28T14:39:18.645Z,20.87
2018-11-28T14:41:48.545Z,20.47
2018-11-28T14:44:19.026Z,19.17
2018-11-28T14:46:49.333Z,19.90
2018-11-28T14:49:19.365Z,22.03
2018-11-28T14:51:49.644Z,19.57
2018-11-28T14:54:19.525Z,17.93
2018-11-28T14:56:49.604Z,21.10
2018-11-28T14:59:20.305Z,20.27
2018-11-28T15:01:50.988Z,25.17
2018-11-28T15:04:21.102Z,20.20
2018-11-28T15:06:56.952Z,27.30
2018-11-28T15:09:33.471Z,29.43
2018-11-28T15:12:05.452Z,23.17
2018-11-28T15:14:35.531Z,24.53
2018-11-28T15:17:05.551Z,33.23
2018-11-28T15:19:36.011Z,28.17
2018-11-28T15:22:06.710Z,32.70
2018-11-28T15:24:37.290Z,31.93
2018-11-28T15:27:07.611Z,27.23
2018-11-28T15:29:37.870Z,31.97
2018-11-28T15:32:08.711Z,30.97
2018-11-28T15:34:38.951Z,27.10
2018-11-28T15:37:09.141Z,26.97
2018-11-28T15:39:38.900Z,37.17
2018-11-28T15:42:08.900Z,33.50
2018-11-28T15:44:39.362Z,31.67
2018-11-28T15:47:09.440Z,30.73
2018-11-28T15:49:40.260Z,27.37
2018-11-28T15:52:10.179Z,27.47
2018-11-28T15:54:40.560Z,25.87
2018-11-28T15:57:14.780Z,24.27
2018-11-28T15:59:44.961Z,23.63
2018-11-28T16:02:15.104Z,27.00
2018-11-28T16:04:48.926Z,26.33
2018-11-28T16:07:19.309Z,27.50
2018-11-28T16:10:05.971Z,26.57
2018-11-28T16:12:36.724Z,29.53
2018-11-28T16:15:08.164Z,29.97
2018-11-28T16:17:38.260Z,25.53
2018-11-28T16:20:08.523Z,26.97
2018-11-28T16:22:43.205Z,25.27
2018-11-28T16:25:14.063Z,27.77
2018-11-28T16:27:44.307Z,27.17
2018-11-28T16:30:15.986Z,26.40
2018-11-28T16:32:47.026Z,25.17
2018-11-28T16:35:18.746Z,23.20
2018-11-28T16:37:49.125Z,26.60
2018-11-28T16:40:19.063Z,27.57
2018-11-28T16:42:49.285Z,28.87
2018-11-28T16:45:21.924Z,38.77
2018-11-28T16:47:52.246Z,41.73
2018-11-28T16:50:22.712Z,31.27
2018-11-28T16:52:53.123Z,32.77
2018-11-28T16:55:23.523Z,37.87
2018-11-28T16:57:56.163Z,37.33
2018-11-28T17:00:28.053Z,35.03
2018-11-28T17:02:58.603Z,37.97
2018-11-28T17:05:29.284Z,33.07
2018-11-28T17:07:59.365Z,27.83
2018-11-28T17:10:31.679Z,24.93
2018-11-28T17:13:02.399Z,26.00
2018-11-28T17:15:37.007Z,24.07
2018-11-28T17:18:07.359Z,15.53
2018-11-28T17:20:39.999Z,17.27
2018-11-28T17:23:10.146Z,23.07
2018-11-28T17:25:40.399Z,20.57
2018-11-28T17:28:10.519Z,16.90
2018-11-28T17:30:41.002Z,14.37
2018-11-28T17:33:11.359Z,12.43
2018-11-28T17:35:41.760Z,13.83
2018-11-28T17:38:11.839Z,14.67
2018-11-28T17:40:46.378Z,14.20
2018-11-28T17:43:16.798Z,11.87
2018-11-28T17:45:46.580Z,13.70
2018-11-28T17:48:17.240Z,12.70
2018-11-28T17:50:47.359Z,15.47
2018-11-28T17:53:20.119Z,13.40
2018-11-28T17:55:54.979Z,11.70
2018-11-28T17:58:26.139Z,12.73
2018-11-28T18:00:57.623Z,12.40
2018-11-28T18:03:36.545Z,14.73
2018-11-28T18:06:09.407Z,11.07
2018-11-28T18:08:44.372Z,13.30
2018-11-28T18:11:16.166Z,12.47
2018-11-28T18:13:46.585Z,14.97
2018-11-28T18:16:16.965Z,15.57
2018-11-28T18:18:47.245Z,12.87
2018-11-28T18:21:17.604Z,15.40
2018-11-28T18:23:47.845Z,14.00
2018-11-28T18:26:18.104Z,15.33
2018-11-28T18:28:48.247Z,13.23
2018-11-28T18:31:18.730Z,16.10
2018-11-28T18:33:48.799Z,15.70
2018-11-28T18:36:18.723Z,14.80
2018-11-28T18:38:48.960Z,20.17
2018-11-28T18:41:21.558Z,17.40
2018-11-28T18:43:51.442Z,17.07
2018-11-28T18:46:24.648Z,13.97
2018-11-28T18:48:55.430Z,18.77
2018-11-28T18:51:27.063Z,13.83
2018-11-28T18:53:57.003Z,16.13
2018-11-28T18:56:28.507Z,17.17
2018-11-28T18:58:58.666Z,12.47
2018-11-28T19:01:28.745Z,13.83
2018-11-28T19:04:01.961Z,13.83
2018-11-28T19:06:37.089Z,16.07
2018-11-28T19:09:14.348Z,17.43
2018-11-28T19:11:44.969Z,23.20
2018-11-28T19:14:14.720Z,30.53
2018-11-28T19:16:50.242Z,39.23
2018-11-28T19:19:20.251Z,42.73
2018-11-28T19:21:54.567Z,40.23
2018-11-28T19:24:24.948Z,36.93
2018-11-28T19:26:55.119Z,41.57
2018-11-28T19:29:25.318Z,41.87
2018-11-28T19:31:55.208Z,40.23
2018-11-28T19:34:24.969Z,43.40
2018-11-28T19:36:59.209Z,35.00
2018-11-28T19:39:30.561Z,30.83
2018-11-28T19:42:00.319Z,24.73
2018-11-28T19:44:31.039Z,11.90
2018-11-28T19:47:01.519Z,14.97
2018-11-28T19:49:31.499Z,12.47
2018-11-28T19:52:01.940Z,15.33
2018-11-28T19:54:32.000Z,14.57
2018-11-28T19:57:02.318Z,12.30
2018-11-28T19:59:32.240Z,15.40
2018-11-28T20:02:02.484Z,16.77
2018-11-28T20:04:32.506Z,15.67
2018-11-28T20:07:02.364Z,18.53
2018-11-28T20:09:32.408Z,17.37
2018-11-28T20:12:02.902Z,18.93
2018-11-28T20:14:33.247Z,20.60
2018-11-28T20:17:03.551Z,20.53
2018-11-28T20:19:33.744Z,17.20
2018-11-28T20:22:03.963Z,19.27
2018-11-28T20:24:34.222Z,22.23
2018-11-28T20:27:08.784Z,24.70
2018-11-28T20:29:39.266Z,20.60
2018-11-28T20:32:09.921Z,20.87
2018-11-28T20:34:40.004Z,20.63
2018-11-28T20:37:10.165Z,22.30
2018-11-28T20:39:40.671Z,22.97
2018-11-28T20:42:11.044Z,21.13
2018-11-28T20:44:41.602Z,22.50
2018-11-28T20:47:15.904Z,21.33
2018-11-28T20:49:46.243Z,21.97
2018-11-28T20:52:16.905Z,24.67
2018-11-28T20:54:46.922Z,19.57
2018-11-28T20:57:17.508Z,21.00
2018-11-28T20:59:47.683Z,16.47
2018-11-28T21:02:17.971Z,20.33
2018-11-28T21:04:48.081Z,16.87
2018-11-28T21:07:18.339Z,19.43
2018-11-28T21:12:30.014Z,19.43
2018-11-28T21:15:00.465Z,20.03
2018-11-28T21:17:30.781Z,18.43
2018-11-28T21:20:02.221Z,20.83
2018-11-28T21:22:33.571Z,20.20
2018-11-28T21:25:03.805Z,22.23
2018-11-28T21:27:34.025Z,20.47
2018-11-28T21:30:04.445Z,18.07
2018-11-28T21:32:34.885Z,20.43
2018-11-28T21:35:04.720Z,22.97
2018-11-28T21:37:34.982Z,21.23
2018-11-28T21:40:05.433Z,26.30
2018-11-28T21:42:35.845Z,29.37
2018-11-28T21:45:07.439Z,68.03
2018-11-28T21:47:37.958Z,55.17
2018-11-28T21:52:47.578Z,33.37
2018-11-28T21:55:19.042Z,27.17
2018-11-28T21:57:49.211Z,25.77
2018-11-28T22:00:41.931Z,28.60
2018-11-28T22:03:12.034Z,31.80
2018-11-28T22:05:42.098Z,32.00
2018-11-28T22:08:13.211Z,30.43
2018-11-28T22:10:43.567Z,38.43
2018-11-28T22:13:13.768Z,26.40
2018-11-28T22:15:43.998Z,33.87
2018-11-28T22:18:14.080Z,27.43
2018-11-28T22:20:44.479Z,29.17
2018-11-28T22:23:14.800Z,21.67
2018-11-28T22:25:45.258Z,20.97
2018-11-28T22:28:15.340Z,26.13
2018-11-28T22:30:45.383Z,21.43
2018-11-28T22:33:15.819Z,21.53
2018-11-28T22:35:46.199Z,18.40
2018-11-28T22:38:16.262Z,19.53
2018-11-28T22:40:46.401Z,17.47
2018-11-28T22:43:16.681Z,17.00
2018-11-28T22:45:46.880Z,17.27
2018-11-28T22:48:17.065Z,19.70
2018-11-28T22:50:47.061Z,19.57
2018-11-28T22:53:17.062Z,17.60
2018-11-28T22:55:47.081Z,18.43
2018-11-28T22:58:17.459Z,18.20
2018-11-28T23:00:53.067Z,19.20
2018-11-28T23:03:23.104Z,18.63
2018-11-28T23:05:55.559Z,19.53
2018-11-28T23:08:26.019Z,17.97
2018-11-28T23:10:55.918Z,15.80
2018-11-28T23:13:27.320Z,18.07
2018-11-28T23:15:57.678Z,17.63
2018-11-28T23:18:28.798Z,17.13
2018-11-28T23:20:59.240Z,16.07
2018-11-28T23:23:30.079Z,16.50
2018-11-28T23:26:00.299Z,17.23
2018-11-28T23:28:30.678Z,16.37
2018-11-28T23:33:35.039Z,17.07
2018-11-28T23:36:05.099Z,16.93
2018-11-28T23:38:35.418Z,17.43
2018-11-28T23:41:06.563Z,19.87
2018-11-28T23:43:37.419Z,18.13
2018-11-28T23:46:07.999Z,19.50
2018-11-28T23:48:38.159Z,19.37
2018-11-28T23:51:08.619Z,20.93
2018-11-28T23:53:39.739Z,22.00
2018-11-28T23:56:10.839Z,19.67
2018-11-28T23:58:41.282Z,18.17
